sensor_id;sensor_type;location;lat;lon;timestamp;P1;durP1;ratioP1;P2;durP2;ratioP2
76127;SDS011;64873;50.102;14.434;2023-03-01T00:01:00;42.50;;;20.33;;
76127;SDS011;64873;50.102;14.434;2023-03-01T00:03:26;39.83;;;19.20;;
76127;SDS011;64873;50.102;14.434;2023-03-01T00:05:52;43.83;;;20.27;;
76127;SDS011;64873;50.102;14.434;2023-03-01T00:08:17;45.55;;;22.48;;
76127;SDS011;64873;50.102;14.434;2023-03-01T00:10:43;44.92;;;21.23;;
76127;SDS011;64873;50.102;14.434;2023-03-01T00:13:08;37.60;;;19.45;;
76127;SDS011;64873;50.102;14.434;2023-03-01T00:15:37;36.55;;;18.50;;
76127;SDS011;64873;50.102;14.434;2023-03-01T00:18:03;37.38;;;18.38;;
76127;SDS011;64873;50.102;14.434;2023-03-01T00:20:29;37.83;;;19.95;;
76127;SDS011;64873;50.102;14.434;2023-03-01T00:22:54;38.67;;;20.75;;
76127;SDS011;64873;50.102;14.434;2023-03-01T00:25:19;44.85;;;21.98;;
76127;SDS011;64873;50.102;14.434;2023-03-01T00:27:46;51.53;;;21.95;;
76127;SDS011;64873;50.102;14.434;2023-03-01T00:30:13;44.85;;;21.50;;
76127;SDS011;64873;50.102;14.434;2023-03-01T00:32:39;44.28;;;21.52;;
76127;SDS011;64873;50.102;14.434;2023-03-01T00:35:05;44.05;;;21.13;;
76127;SDS011;64873;50.102;14.434;2023-03-01T00:37:30;40.97;;;22.27;;
76127;SDS011;64873;50.102;14.434;2023-03-01T00:39:56;46.75;;;23.52;;
76127;SDS011;64873;50.102;14.434;2023-03-01T00:42:21;44.72;;;21.40;;
76127;SDS011;64873;50.102;14.434;2023-03-01T00:44:47;36.25;;;18.75;;
76127;SDS011;64873;50.102;14.434;2023-03-01T00:47:12;49.13;;;22.25;;
76127;SDS011;64873;50.102;14.434;2023-03-01T00:49:39;40.45;;;19.95;;
76127;SDS011;64873;50.102;14.434;2023-03-01T00:52:05;42.05;;;19.92;;
76127;SDS011;64873;50.102;14.434;2023-03-01T00:54:30;41.40;;;19.83;;
76127;SDS011;64873;50.102;14.434;2023-03-01T00:56:56;43.70;;;22.20;;
76127;SDS011;64873;50.102;14.434;2023-03-01T00:59:21;48.25;;;22.38;;
76127;SDS011;64873;50.102;14.434;2023-03-01T01:01:46;42.75;;;20.58;;
76127;SDS011;64873;50.102;14.434;2023-03-01T01:04:12;43.75;;;22.58;;
76127;SDS011;64873;50.102;14.434;2023-03-01T01:06:39;46.67;;;21.92;;
76127;SDS011;64873;50.102;14.434;2023-03-01T01:09:10;40.30;;;20.50;;
76127;SDS011;64873;50.102;14.434;2023-03-01T01:11:48;47.72;;;22.30;;
76127;SDS011;64873;50.102;14.434;2023-03-01T01:14:15;42.88;;;23.58;;
76127;SDS011;64873;50.102;14.434;2023-03-01T01:16:41;42.67;;;20.00;;
76127;SDS011;64873;50.102;14.434;2023-03-01T01:19:06;39.63;;;19.83;;
76127;SDS011;64873;50.102;14.434;2023-03-01T01:21:32;34.13;;;16.83;;
76127;SDS011;64873;50.102;14.434;2023-03-01T01:23:58;32.50;;;14.18;;
76127;SDS011;64873;50.102;14.434;2023-03-01T01:26:25;42.53;;;20.65;;
76127;SDS011;64873;50.102;14.434;2023-03-01T01:28:52;45.28;;;21.85;;
76127;SDS011;64873;50.102;14.434;2023-03-01T01:31:18;38.63;;;20.25;;
76127;SDS011;64873;50.102;14.434;2023-03-01T01:33:44;40.47;;;19.77;;
76127;SDS011;64873;50.102;14.434;2023-03-01T01:36:10;48.30;;;23.63;;
76127;SDS011;64873;50.102;14.434;2023-03-01T01:38:36;39.63;;;20.08;;
76127;SDS011;64873;50.102;14.434;2023-03-01T01:41:03;48.25;;;23.20;;
76127;SDS011;64873;50.102;14.434;2023-03-01T01:44:10;46.97;;;24.08;;
76127;SDS011;64873;50.102;14.434;2023-03-01T01:46:35;46.95;;;22.75;;
76127;SDS011;64873;50.102;14.434;2023-03-01T01:49:04;50.40;;;24.05;;
76127;SDS011;64873;50.102;14.434;2023-03-01T01:51:41;42.47;;;20.05;;
76127;SDS011;64873;50.102;14.434;2023-03-01T01:54:12;49.65;;;22.10;;
76127;SDS011;64873;50.102;14.434;2023-03-01T01:57:00;52.22;;;25.08;;
76127;SDS011;64873;50.102;14.434;2023-03-01T01:59:28;47.80;;;24.10;;
76127;SDS011;64873;50.102;14.434;2023-03-01T02:01:57;44.00;;;20.15;;
76127;SDS011;64873;50.102;14.434;2023-03-01T02:04:26;47.40;;;22.13;;
76127;SDS011;64873;50.102;14.434;2023-03-01T02:07:01;44.47;;;19.65;;
76127;SDS011;64873;50.102;14.434;2023-03-01T02:09:36;45.70;;;22.50;;
76127;SDS011;64873;50.102;14.434;2023-03-01T02:12:02;42.85;;;20.50;;
76127;SDS011;64873;50.102;14.434;2023-03-01T02:14:29;42.45;;;20.30;;
76127;SDS011;64873;50.102;14.434;2023-03-01T02:16:54;42.50;;;21.48;;
76127;SDS011;64873;50.102;14.434;2023-03-01T02:19:30;42.22;;;20.65;;
76127;SDS011;64873;50.102;14.434;2023-03-01T02:25:31;45.72;;;21.13;;
76127;SDS011;64873;50.102;14.434;2023-03-01T02:27:58;45.90;;;20.95;;
76127;SDS011;64873;50.102;14.434;2023-03-01T02:33:29;37.35;;;17.48;;
76127;SDS011;64873;50.102;14.434;2023-03-01T02:36:01;45.47;;;22.40;;
76127;SDS011;64873;50.102;14.434;2023-03-01T02:38:40;45.53;;;23.67;;
76127;SDS011;64873;50.102;14.434;2023-03-01T02:41:06;46.20;;;20.45;;
76127;SDS011;64873;50.102;14.434;2023-03-01T02:43:33;48.13;;;20.88;;
76127;SDS011;64873;50.102;14.434;2023-03-01T02:46:05;40.22;;;20.95;;
76127;SDS011;64873;50.102;14.434;2023-03-01T02:48:39;49.00;;;22.05;;
76127;SDS011;64873;50.102;14.434;2023-03-01T02:56:53;42.03;;;17.77;;
76127;SDS011;64873;50.102;14.434;2023-03-01T02:59:20;39.08;;;19.48;;
76127;SDS011;64873;50.102;14.434;2023-03-01T03:01:47;44.47;;;21.90;;
76127;SDS011;64873;50.102;14.434;2023-03-01T03:04:14;45.50;;;19.33;;
76127;SDS011;64873;50.102;14.434;2023-03-01T03:06:43;43.33;;;20.85;;
76127;SDS011;64873;50.102;14.434;2023-03-01T03:09:10;34.03;;;16.13;;
76127;SDS011;64873;50.102;14.434;2023-03-01T03:11:37;39.50;;;19.38;;
76127;SDS011;64873;50.102;14.434;2023-03-01T03:14:04;37.70;;;18.05;;
76127;SDS011;64873;50.102;14.434;2023-03-01T03:16:30;51.17;;;25.00;;
76127;SDS011;64873;50.102;14.434;2023-03-01T03:18:56;49.00;;;22.75;;
76127;SDS011;64873;50.102;14.434;2023-03-01T03:21:30;46.50;;;22.65;;
76127;SDS011;64873;50.102;14.434;2023-03-01T03:23:56;51.45;;;23.20;;
76127;SDS011;64873;50.102;14.434;2023-03-01T03:26:22;47.10;;;23.15;;
76127;SDS011;64873;50.102;14.434;2023-03-01T03:28:48;36.90;;;17.52;;
76127;SDS011;64873;50.102;14.434;2023-03-01T03:31:13;39.88;;;18.92;;
76127;SDS011;64873;50.102;14.434;2023-03-01T03:33:39;47.95;;;21.73;;
76127;SDS011;64873;50.102;14.434;2023-03-01T03:36:04;38.28;;;18.80;;
76127;SDS011;64873;50.102;14.434;2023-03-01T03:38:30;43.75;;;20.90;;
76127;SDS011;64873;50.102;14.434;2023-03-01T03:41:00;40.72;;;19.48;;
76127;SDS011;64873;50.102;14.434;2023-03-01T03:43:27;47.05;;;20.73;;
76127;SDS011;64873;50.102;14.434;2023-03-01T03:45:53;55.13;;;21.77;;
76127;SDS011;64873;50.102;14.434;2023-03-01T03:48:19;44.13;;;20.73;;
76127;SDS011;64873;50.102;14.434;2023-03-01T03:50:52;51.88;;;22.35;;
76127;SDS011;64873;50.102;14.434;2023-03-01T03:53:20;41.83;;;19.73;;
76127;SDS011;64873;50.102;14.434;2023-03-01T03:55:47;52.30;;;26.05;;
76127;SDS011;64873;50.102;14.434;2023-03-01T03:58:14;47.33;;;19.95;;
76127;SDS011;64873;50.102;14.434;2023-03-01T04:00:42;44.90;;;20.52;;
76127;SDS011;64873;50.102;14.434;2023-03-01T04:03:09;51.22;;;23.90;;
76127;SDS011;64873;50.102;14.434;2023-03-01T04:05:36;43.67;;;21.08;;
76127;SDS011;64873;50.102;14.434;2023-03-01T04:08:03;43.72;;;21.27;;
76127;SDS011;64873;50.102;14.434;2023-03-01T04:10:33;49.60;;;22.65;;
76127;SDS011;64873;50.102;14.434;2023-03-01T04:13:01;47.75;;;23.05;;
76127;SDS011;64873;50.102;14.434;2023-03-01T04:15:27;44.90;;;21.23;;
76127;SDS011;64873;50.102;14.434;2023-03-01T04:17:53;43.00;;;20.33;;
76127;SDS011;64873;50.102;14.434;2023-03-01T04:20:20;43.92;;;19.50;;
76127;SDS011;64873;50.102;14.434;2023-03-01T04:23:04;41.85;;;20.05;;
76127;SDS011;64873;50.102;14.434;2023-03-01T04:25:41;38.15;;;18.50;;
76127;SDS011;64873;50.102;14.434;2023-03-01T04:28:10;42.92;;;19.70;;
76127;SDS011;64873;50.102;14.434;2023-03-01T04:30:36;39.83;;;18.00;;
76127;SDS011;64873;50.102;14.434;2023-03-01T04:33:03;40.47;;;17.80;;
76127;SDS011;64873;50.102;14.434;2023-03-01T04:35:32;35.72;;;15.65;;
76127;SDS011;64873;50.102;14.434;2023-03-01T04:38:00;33.38;;;14.52;;
76127;SDS011;64873;50.102;14.434;2023-03-01T04:40:26;41.10;;;17.60;;
76127;SDS011;64873;50.102;14.434;2023-03-01T04:42:52;48.80;;;22.92;;
76127;SDS011;64873;50.102;14.434;2023-03-01T04:45:17;36.45;;;16.92;;
76127;SDS011;64873;50.102;14.434;2023-03-01T04:47:43;42.97;;;18.33;;
76127;SDS011;64873;50.102;14.434;2023-03-01T04:50:11;38.72;;;17.83;;
76127;SDS011;64873;50.102;14.434;2023-03-01T04:52:39;28.90;;;14.82;;
76127;SDS011;64873;50.102;14.434;2023-03-01T04:55:04;32.53;;;15.70;;
76127;SDS011;64873;50.102;14.434;2023-03-01T04:57:31;45.70;;;20.92;;
76127;SDS011;64873;50.102;14.434;2023-03-01T04:59:57;44.00;;;19.42;;
76127;SDS011;64873;50.102;14.434;2023-03-01T05:02:22;34.88;;;17.40;;
76127;SDS011;64873;50.102;14.434;2023-03-01T05:04:48;47.28;;;19.63;;
76127;SDS011;64873;50.102;14.434;2023-03-01T05:07:14;46.00;;;20.73;;
76127;SDS011;64873;50.102;14.434;2023-03-01T05:09:45;45.22;;;22.38;;
76127;SDS011;64873;50.102;14.434;2023-03-01T05:12:11;52.47;;;24.33;;
76127;SDS011;64873;50.102;14.434;2023-03-01T05:14:37;46.33;;;22.65;;
76127;SDS011;64873;50.102;14.434;2023-03-01T05:17:03;43.05;;;20.75;;
76127;SDS011;64873;50.102;14.434;2023-03-01T05:19:29;47.85;;;23.20;;
76127;SDS011;64873;50.102;14.434;2023-03-01T05:21:56;45.63;;;21.63;;
76127;SDS011;64873;50.102;14.434;2023-03-01T05:24:32;41.97;;;20.80;;
76127;SDS011;64873;50.102;14.434;2023-03-01T05:27:00;45.05;;;22.10;;
76127;SDS011;64873;50.102;14.434;2023-03-01T05:29:27;48.30;;;23.00;;
76127;SDS011;64873;50.102;14.434;2023-03-01T05:31:55;46.92;;;21.42;;
76127;SDS011;64873;50.102;14.434;2023-03-01T05:34:27;49.95;;;23.55;;
76127;SDS011;64873;50.102;14.434;2023-03-01T05:36:54;45.93;;;20.57;;
76127;SDS011;64873;50.102;14.434;2023-03-01T05:39:20;28.92;;;14.60;;
76127;SDS011;64873;50.102;14.434;2023-03-01T05:41:48;20.33;;;10.63;;
76127;SDS011;64873;50.102;14.434;2023-03-01T05:44:16;29.77;;;14.27;;
76127;SDS011;64873;50.102;14.434;2023-03-01T05:46:42;45.30;;;20.08;;
76127;SDS011;64873;50.102;14.434;2023-03-01T05:49:07;41.72;;;18.52;;
76127;SDS011;64873;50.102;14.434;2023-03-01T05:51:33;41.90;;;19.02;;
76127;SDS011;64873;50.102;14.434;2023-03-01T05:53:59;48.47;;;23.73;;
76127;SDS011;64873;50.102;14.434;2023-03-01T05:56:24;46.67;;;22.35;;
76127;SDS011;64873;50.102;14.434;2023-03-01T05:58:50;38.63;;;18.73;;
76127;SDS011;64873;50.102;14.434;2023-03-01T06:01:16;47.00;;;20.25;;
76127;SDS011;64873;50.102;14.434;2023-03-01T06:03:41;47.03;;;21.60;;
76127;SDS011;64873;50.102;14.434;2023-03-01T06:06:07;51.15;;;24.00;;
76127;SDS011;64873;50.102;14.434;2023-03-01T06:08:33;38.20;;;16.05;;
76127;SDS011;64873;50.102;14.434;2023-03-01T06:10:58;37.25;;;17.83;;
76127;SDS011;64873;50.102;14.434;2023-03-01T06:13:24;18.42;;;8.93;;
76127;SDS011;64873;50.102;14.434;2023-03-01T06:15:49;31.35;;;14.18;;
76127;SDS011;64873;50.102;14.434;2023-03-01T06:18:15;39.40;;;16.63;;
76127;SDS011;64873;50.102;14.434;2023-03-01T06:20:40;27.73;;;12.02;;
76127;SDS011;64873;50.102;14.434;2023-03-01T06:23:06;40.45;;;17.45;;
76127;SDS011;64873;50.102;14.434;2023-03-01T06:25:31;57.35;;;24.38;;
76127;SDS011;64873;50.102;14.434;2023-03-01T06:27:57;53.22;;;24.95;;
76127;SDS011;64873;50.102;14.434;2023-03-01T06:30:23;56.05;;;25.40;;
76127;SDS011;64873;50.102;14.434;2023-03-01T06:32:50;48.75;;;20.20;;
76127;SDS011;64873;50.102;14.434;2023-03-01T06:35:15;43.95;;;20.08;;
76127;SDS011;64873;50.102;14.434;2023-03-01T06:37:43;48.22;;;23.55;;
76127;SDS011;64873;50.102;14.434;2023-03-01T06:40:08;52.00;;;22.65;;
76127;SDS011;64873;50.102;14.434;2023-03-01T06:42:36;52.72;;;24.52;;
76127;SDS011;64873;50.102;14.434;2023-03-01T06:45:06;51.25;;;24.10;;
76127;SDS011;64873;50.102;14.434;2023-03-01T06:47:33;49.33;;;22.92;;
76127;SDS011;64873;50.102;14.434;2023-03-01T06:49:59;50.55;;;20.85;;
76127;SDS011;64873;50.102;14.434;2023-03-01T06:52:26;15.85;;;8.07;;
76127;SDS011;64873;50.102;14.434;2023-03-01T06:54:51;47.25;;;21.35;;
76127;SDS011;64873;50.102;14.434;2023-03-01T06:57:24;39.97;;;17.02;;
76127;SDS011;64873;50.102;14.434;2023-03-01T06:59:49;40.58;;;16.95;;
76127;SDS011;64873;50.102;14.434;2023-03-01T07:02:15;55.17;;;24.35;;
76127;SDS011;64873;50.102;14.434;2023-03-01T07:04:41;51.67;;;19.35;;
76127;SDS011;64873;50.102;14.434;2023-03-01T07:07:07;48.05;;;20.33;;
76127;SDS011;64873;50.102;14.434;2023-03-01T07:09:33;47.10;;;19.40;;
76127;SDS011;64873;50.102;14.434;2023-03-01T07:11:59;46.55;;;21.52;;
76127;SDS011;64873;50.102;14.434;2023-03-01T07:14:25;49.35;;;22.17;;
76127;SDS011;64873;50.102;14.434;2023-03-01T07:16:51;49.38;;;23.92;;
76127;SDS011;64873;50.102;14.434;2023-03-01T07:19:19;58.05;;;26.70;;
76127;SDS011;64873;50.102;14.434;2023-03-01T07:21:45;57.95;;;26.38;;
76127;SDS011;64873;50.102;14.434;2023-03-01T07:24:11;50.58;;;25.33;;
76127;SDS011;64873;50.102;14.434;2023-03-01T07:26:36;46.10;;;20.63;;
76127;SDS011;64873;50.102;14.434;2023-03-01T07:29:03;41.80;;;20.45;;
76127;SDS011;64873;50.102;14.434;2023-03-01T07:31:29;53.90;;;25.20;;
76127;SDS011;64873;50.102;14.434;2023-03-01T07:33:55;39.03;;;19.77;;
76127;SDS011;64873;50.102;14.434;2023-03-01T07:36:21;45.55;;;20.90;;
76127;SDS011;64873;50.102;14.434;2023-03-01T07:38:47;49.40;;;21.15;;
76127;SDS011;64873;50.102;14.434;2023-03-01T07:41:12;45.65;;;20.83;;
76127;SDS011;64873;50.102;14.434;2023-03-01T07:43:38;45.15;;;19.00;;
76127;SDS011;64873;50.102;14.434;2023-03-01T07:46:03;44.72;;;21.55;;
76127;SDS011;64873;50.102;14.434;2023-03-01T07:48:30;40.80;;;19.92;;
76127;SDS011;64873;50.102;14.434;2023-03-01T07:50:59;54.25;;;22.92;;
76127;SDS011;64873;50.102;14.434;2023-03-01T07:53:26;44.25;;;22.17;;
76127;SDS011;64873;50.102;14.434;2023-03-01T07:56:04;45.38;;;21.92;;
76127;SDS011;64873;50.102;14.434;2023-03-01T08:01:01;43.53;;;20.90;;
76127;SDS011;64873;50.102;14.434;2023-03-01T08:03:28;45.67;;;23.58;;
76127;SDS011;64873;50.102;14.434;2023-03-01T08:05:54;47.53;;;22.25;;
76127;SDS011;64873;50.102;14.434;2023-03-01T08:08:19;40.75;;;19.75;;
76127;SDS011;64873;50.102;14.434;2023-03-01T08:10:44;46.97;;;20.55;;
76127;SDS011;64873;50.102;14.434;2023-03-01T08:13:10;48.40;;;22.35;;
76127;SDS011;64873;50.102;14.434;2023-03-01T08:15:35;46.53;;;20.35;;
76127;SDS011;64873;50.102;14.434;2023-03-01T08:18:01;45.78;;;20.15;;
76127;SDS011;64873;50.102;14.434;2023-03-01T08:20:26;40.88;;;21.30;;
76127;SDS011;64873;50.102;14.434;2023-03-01T08:22:52;42.28;;;21.00;;
76127;SDS011;64873;50.102;14.434;2023-03-01T08:25:17;55.70;;;21.70;;
76127;SDS011;64873;50.102;14.434;2023-03-01T08:27:42;47.83;;;22.60;;
76127;SDS011;64873;50.102;14.434;2023-03-01T08:30:08;44.53;;;22.83;;
76127;SDS011;64873;50.102;14.434;2023-03-01T08:32:35;43.90;;;21.92;;
76127;SDS011;64873;50.102;14.434;2023-03-01T08:35:02;51.58;;;23.38;;
76127;SDS011;64873;50.102;14.434;2023-03-01T08:37:28;40.35;;;19.33;;
76127;SDS011;64873;50.102;14.434;2023-03-01T08:39:56;43.28;;;20.42;;
76127;SDS011;64873;50.102;14.434;2023-03-01T08:42:21;48.25;;;22.65;;
76127;SDS011;64873;50.102;14.434;2023-03-01T08:44:47;48.00;;;22.63;;
76127;SDS011;64873;50.102;14.434;2023-03-01T08:47:12;48.20;;;23.90;;
76127;SDS011;64873;50.102;14.434;2023-03-01T08:49:37;51.28;;;25.10;;
76127;SDS011;64873;50.102;14.434;2023-03-01T08:52:03;49.80;;;22.48;;
76127;SDS011;64873;50.102;14.434;2023-03-01T08:54:28;48.47;;;22.27;;
76127;SDS011;64873;50.102;14.434;2023-03-01T08:56:54;48.90;;;23.70;;
76127;SDS011;64873;50.102;14.434;2023-03-01T08:59:19;43.65;;;20.27;;
76127;SDS011;64873;50.102;14.434;2023-03-01T09:01:45;50.00;;;23.13;;
76127;SDS011;64873;50.102;14.434;2023-03-01T09:04:11;49.85;;;23.40;;
76127;SDS011;64873;50.102;14.434;2023-03-01T09:06:37;46.70;;;20.98;;
76127;SDS011;64873;50.102;14.434;2023-03-01T09:09:04;45.38;;;22.42;;
76127;SDS011;64873;50.102;14.434;2023-03-01T09:11:30;42.03;;;20.30;;
76127;SDS011;64873;50.102;14.434;2023-03-01T09:13:56;41.42;;;21.13;;
76127;SDS011;64873;50.102;14.434;2023-03-01T09:16:22;46.63;;;20.27;;
76127;SDS011;64873;50.102;14.434;2023-03-01T09:18:49;37.33;;;18.90;;
76127;SDS011;64873;50.102;14.434;2023-03-01T09:21:19;34.35;;;16.33;;
76127;SDS011;64873;50.102;14.434;2023-03-01T09:23:46;45.67;;;21.05;;
76127;SDS011;64873;50.102;14.434;2023-03-01T09:26:13;42.25;;;21.80;;
76127;SDS011;64873;50.102;14.434;2023-03-01T09:28:41;40.03;;;22.48;;
76127;SDS011;64873;50.102;14.434;2023-03-01T09:31:07;33.95;;;18.02;;
76127;SDS011;64873;50.102;14.434;2023-03-01T09:33:33;34.65;;;17.15;;
76127;SDS011;64873;50.102;14.434;2023-03-01T09:36:03;34.75;;;15.52;;
76127;SDS011;64873;50.102;14.434;2023-03-01T09:38:31;32.03;;;17.33;;
76127;SDS011;64873;50.102;14.434;2023-03-01T09:40:56;34.38;;;17.67;;
76127;SDS011;64873;50.102;14.434;2023-03-01T09:45:58;38.75;;;15.35;;
76127;SDS011;64873;50.102;14.434;2023-03-01T09:48:28;31.60;;;14.85;;
76127;SDS011;64873;50.102;14.434;2023-03-01T09:50:58;31.20;;;16.73;;
76127;SDS011;64873;50.102;14.434;2023-03-01T09:53:32;33.47;;;17.42;;
76127;SDS011;64873;50.102;14.434;2023-03-01T09:56:02;32.80;;;16.58;;
76127;SDS011;64873;50.102;14.434;2023-03-01T10:06:31;30.03;;;15.70;;
76127;SDS011;64873;50.102;14.434;2023-03-01T10:09:13;24.65;;;13.50;;
76127;SDS011;64873;50.102;14.434;2023-03-01T10:11:51;32.35;;;16.42;;
76127;SDS011;64873;50.102;14.434;2023-03-01T10:22:45;21.52;;;10.43;;
76127;SDS011;64873;50.102;14.434;2023-03-01T10:25:15;30.08;;;16.02;;
76127;SDS011;64873;50.102;14.434;2023-03-01T10:27:54;28.00;;;14.60;;
76127;SDS011;64873;50.102;14.434;2023-03-01T10:30:44;30.20;;;14.98;;
76127;SDS011;64873;50.102;14.434;2023-03-01T10:33:13;28.77;;;14.00;;
76127;SDS011;64873;50.102;14.434;2023-03-01T10:35:45;27.83;;;13.98;;
76127;SDS011;64873;50.102;14.434;2023-03-01T10:38:13;32.17;;;16.58;;
76127;SDS011;64873;50.102;14.434;2023-03-01T10:40:56;27.15;;;14.05;;
76127;SDS011;64873;50.102;14.434;2023-03-01T10:43:32;30.92;;;14.52;;
76127;SDS011;64873;50.102;14.434;2023-03-01T10:51:43;32.45;;;17.77;;
76127;SDS011;64873;50.102;14.434;2023-03-01T10:56:50;29.13;;;13.87;;
76127;SDS011;64873;50.102;14.434;2023-03-01T10:59:27;29.85;;;14.40;;
76127;SDS011;64873;50.102;14.434;2023-03-01T11:16:10;28.27;;;14.48;;
76127;SDS011;64873;50.102;14.434;2023-03-01T11:18:37;32.80;;;17.10;;
76127;SDS011;64873;50.102;14.434;2023-03-01T11:21:03;26.80;;;13.98;;
76127;SDS011;64873;50.102;14.434;2023-03-01T11:23:30;32.38;;;18.10;;
76127;SDS011;64873;50.102;14.434;2023-03-01T11:26:02;31.98;;;14.50;;
76127;SDS011;64873;50.102;14.434;2023-03-01T11:28:33;27.88;;;14.18;;
76127;SDS011;64873;50.102;14.434;2023-03-01T11:31:08;30.20;;;13.48;;
76127;SDS011;64873;50.102;14.434;2023-03-01T11:33:50;22.73;;;12.77;;
76127;SDS011;64873;50.102;14.434;2023-03-01T11:38:57;26.95;;;14.38;;
76127;SDS011;64873;50.102;14.434;2023-03-01T11:41:31;31.67;;;14.48;;
76127;SDS011;64873;50.102;14.434;2023-03-01T11:52:21;25.27;;;13.38;;
76127;SDS011;64873;50.102;14.434;2023-03-01T11:55:24;26.23;;;15.60;;
76127;SDS011;64873;50.102;14.434;2023-03-01T11:58:01;28.55;;;13.80;;
76127;SDS011;64873;50.102;14.434;2023-03-01T12:01:08;26.27;;;13.90;;
76127;SDS011;64873;50.102;14.434;2023-03-01T12:03:46;26.75;;;14.82;;
76127;SDS011;64873;50.102;14.434;2023-03-01T12:11:49;35.03;;;17.58;;
76127;SDS011;64873;50.102;14.434;2023-03-01T12:22:44;31.45;;;17.35;;
76127;SDS011;64873;50.102;14.434;2023-03-01T12:38:31;28.88;;;13.20;;
76127;SDS011;64873;50.102;14.434;2023-03-01T12:47:05;28.50;;;15.60;;
76127;SDS011;64873;50.102;14.434;2023-03-01T12:49:45;31.02;;;15.80;;
76127;SDS011;64873;50.102;14.434;2023-03-01T12:52:16;23.90;;;14.38;;
76127;SDS011;64873;50.102;14.434;2023-03-01T12:54:50;26.08;;;14.38;;
76127;SDS011;64873;50.102;14.434;2023-03-01T12:57:25;27.33;;;12.98;;
76127;SDS011;64873;50.102;14.434;2023-03-01T13:00:17;26.05;;;12.57;;
76127;SDS011;64873;50.102;14.434;2023-03-01T13:02:53;26.25;;;14.32;;
76127;SDS011;64873;50.102;14.434;2023-03-01T13:05:51;24.58;;;13.60;;
76127;SDS011;64873;50.102;14.434;2023-03-01T13:08:29;31.48;;;18.00;;
76127;SDS011;64873;50.102;14.434;2023-03-01T13:11:01;26.77;;;14.73;;
76127;SDS011;64873;50.102;14.434;2023-03-01T13:13:28;24.20;;;13.07;;
76127;SDS011;64873;50.102;14.434;2023-03-01T13:15:54;28.17;;;14.13;;
76127;SDS011;64873;50.102;14.434;2023-03-01T13:20:50;22.98;;;12.02;;
76127;SDS011;64873;50.102;14.434;2023-03-01T13:33:46;26.47;;;16.13;;
76127;SDS011;64873;50.102;14.434;2023-03-01T13:36:55;27.92;;;14.60;;
76127;SDS011;64873;50.102;14.434;2023-03-01T13:39:02;24.50;;;12.00;;
76127;SDS011;64873;50.102;14.434;2023-03-01T13:44:26;17.80;;;9.27;;
76127;SDS011;64873;50.102;14.434;2023-03-01T13:49:58;22.33;;;12.57;;
76127;SDS011;64873;50.102;14.434;2023-03-01T13:52:40;29.35;;;14.05;;
76127;SDS011;64873;50.102;14.434;2023-03-01T13:57:42;20.40;;;11.25;;
76127;SDS011;64873;50.102;14.434;2023-03-01T14:03:02;25.10;;;12.63;;
76127;SDS011;64873;50.102;14.434;2023-03-01T14:05:37;25.58;;;12.15;;
76127;SDS011;64873;50.102;14.434;2023-03-01T14:08:03;26.17;;;13.35;;
76127;SDS011;64873;50.102;14.434;2023-03-01T14:10:35;29.42;;;15.32;;
76127;SDS011;64873;50.102;14.434;2023-03-01T14:13:17;24.35;;;12.50;;
76127;SDS011;64873;50.102;14.434;2023-03-01T14:16:05;23.63;;;12.02;;
76127;SDS011;64873;50.102;14.434;2023-03-01T14:21:17;21.83;;;12.40;;
76127;SDS011;64873;50.102;14.434;2023-03-01T14:23:43;23.48;;;11.48;;
76127;SDS011;64873;50.102;14.434;2023-03-01T14:26:09;25.52;;;12.85;;
76127;SDS011;64873;50.102;14.434;2023-03-01T14:28:37;26.55;;;13.77;;
76127;SDS011;64873;50.102;14.434;2023-03-01T14:31:25;22.85;;;13.15;;
76127;SDS011;64873;50.102;14.434;2023-03-01T14:33:58;22.30;;;11.63;;
76127;SDS011;64873;50.102;14.434;2023-03-01T14:36:28;18.45;;;8.85;;
76127;SDS011;64873;50.102;14.434;2023-03-01T14:38:55;20.67;;;12.70;;
76127;SDS011;64873;50.102;14.434;2023-03-01T14:41:24;21.25;;;10.93;;
76127;SDS011;64873;50.102;14.434;2023-03-01T14:43:53;19.77;;;11.38;;
76127;SDS011;64873;50.102;14.434;2023-03-01T14:46:30;23.75;;;14.32;;
76127;SDS011;64873;50.102;14.434;2023-03-01T14:49:19;19.73;;;10.43;;
76127;SDS011;64873;50.102;14.434;2023-03-01T14:54:32;25.85;;;13.32;;
76127;SDS011;64873;50.102;14.434;2023-03-01T14:57:01;25.65;;;15.32;;
76127;SDS011;64873;50.102;14.434;2023-03-01T14:59:27;27.58;;;13.27;;
76127;SDS011;64873;50.102;14.434;2023-03-01T15:01:54;30.00;;;15.88;;
76127;SDS011;64873;50.102;14.434;2023-03-01T15:04:22;26.63;;;12.73;;
76127;SDS011;64873;50.102;14.434;2023-03-01T15:06:52;26.58;;;14.43;;
76127;SDS011;64873;50.102;14.434;2023-03-01T15:09:19;23.83;;;13.70;;
76127;SDS011;64873;50.102;14.434;2023-03-01T15:11:46;21.23;;;12.00;;
76127;SDS011;64873;50.102;14.434;2023-03-01T15:17:29;25.13;;;13.43;;
76127;SDS011;64873;50.102;14.434;2023-03-01T15:19:57;22.48;;;11.80;;
76127;SDS011;64873;50.102;14.434;2023-03-01T15:22:24;24.13;;;13.07;;
76127;SDS011;64873;50.102;14.434;2023-03-01T15:24:53;24.65;;;13.60;;
76127;SDS011;64873;50.102;14.434;2023-03-01T15:27:21;22.85;;;12.02;;
76127;SDS011;64873;50.102;14.434;2023-03-01T15:29:49;23.88;;;13.00;;
76127;SDS011;64873;50.102;14.434;2023-03-01T15:34:58;24.38;;;12.73;;
76127;SDS011;64873;50.102;14.434;2023-03-01T15:40:17;23.92;;;13.48;;
76127;SDS011;64873;50.102;14.434;2023-03-01T15:42:56;23.05;;;13.35;;
76127;SDS011;64873;50.102;14.434;2023-03-01T15:45:23;29.75;;;13.52;;
76127;SDS011;64873;50.102;14.434;2023-03-01T15:48:02;24.27;;;12.57;;
76127;SDS011;64873;50.102;14.434;2023-03-01T15:50:30;26.17;;;12.57;;
76127;SDS011;64873;50.102;14.434;2023-03-01T15:52:59;20.83;;;10.52;;
76127;SDS011;64873;50.102;14.434;2023-03-01T15:55:27;25.83;;;11.63;;
76127;SDS011;64873;50.102;14.434;2023-03-01T15:58:04;19.23;;;11.05;;
76127;SDS011;64873;50.102;14.434;2023-03-01T16:00:30;23.75;;;11.60;;
76127;SDS011;64873;50.102;14.434;2023-03-01T16:02:56;21.50;;;11.80;;
76127;SDS011;64873;50.102;14.434;2023-03-01T16:05:23;25.75;;;13.30;;
76127;SDS011;64873;50.102;14.434;2023-03-01T16:07:51;23.83;;;12.77;;
76127;SDS011;64873;50.102;14.434;2023-03-01T16:10:17;24.65;;;12.57;;
76127;SDS011;64873;50.102;14.434;2023-03-01T16:12:43;22.92;;;12.90;;
76127;SDS011;64873;50.102;14.434;2023-03-01T16:15:19;25.77;;;12.75;;
76127;SDS011;64873;50.102;14.434;2023-03-01T16:17:45;27.30;;;14.13;;
76127;SDS011;64873;50.102;14.434;2023-03-01T16:20:10;32.00;;;13.13;;
76127;SDS011;64873;50.102;14.434;2023-03-01T16:22:36;27.75;;;13.65;;
76127;SDS011;64873;50.102;14.434;2023-03-01T16:25:02;29.38;;;15.05;;
76127;SDS011;64873;50.102;14.434;2023-03-01T16:27:27;31.17;;;13.93;;
76127;SDS011;64873;50.102;14.434;2023-03-01T16:29:53;27.17;;;13.90;;
76127;SDS011;64873;50.102;14.434;2023-03-01T16:32:18;26.42;;;14.02;;
76127;SDS011;64873;50.102;14.434;2023-03-01T16:34:44;26.50;;;13.65;;
76127;SDS011;64873;50.102;14.434;2023-03-01T16:37:09;27.80;;;13.77;;